Nantong, China
Current Conditions -  °F | °C
As of 2:00 PM on Friday 19 Dec 2014 (Local Time) from ZSSS Reporting Station
Scattered Clouds Scattered Clouds  
Wind Chill: 52°   Ceiling: Unl
Heat Index: 52°   Visibility: 6mi
Dew Point: 39°   Wind: 7mph
Humidity: 62%   Direction: 290°WNW
Pressure: 30.24"   Gusts: NA
Location:  32.02°N, 120.82°E
Report Text: ZSSS 190600Z 29003MPS 250V320 9999 SCT033 11/04 Q1024 NOSIG
Loading
Personal Weather Stations






























Interactive Weather Map New forecast layout! Learn more

10-Day Weather Forecast

Advertisements
Track Severe Weather on mobile